sensor_id;sensor_type;location;lat;lon;timestamp;temperature;humidity
70244;DHT22;57634;51.136;17.024;2023-05-07T00:02:01;10.30;81.20
70244;DHT22;57634;51.136;17.024;2023-05-07T00:05:05;10.30;81.10
70244;DHT22;57634;51.136;17.024;2023-05-07T00:08:07;10.20;80.90
70244;DHT22;57634;51.136;17.024;2023-05-07T00:11:08;10.20;81.00
70244;DHT22;57634;51.136;17.024;2023-05-07T00:14:09;10.20;81.00
70244;DHT22;57634;51.136;17.024;2023-05-07T00:17:11;10.20;81.00
70244;DHT22;57634;51.136;17.024;2023-05-07T00:20:39;10.20;80.90
70244;DHT22;57634;51.136;17.024;2023-05-07T00:23:40;10.30;81.10
70244;DHT22;57634;51.136;17.024;2023-05-07T00:26:41;10.30;81.10
70244;DHT22;57634;51.136;17.024;2023-05-07T00:29:42;10.30;80.90
70244;DHT22;57634;51.136;17.024;2023-05-07T00:32:44;10.30;80.80
70244;DHT22;57634;51.136;17.024;2023-05-07T00:35:52;10.40;80.90
70244;DHT22;57634;51.136;17.024;2023-05-07T00:38:56;10.40;80.70
70244;DHT22;57634;51.136;17.024;2023-05-07T00:41:57;10.50;80.70
70244;DHT22;57634;51.136;17.024;2023-05-07T00:44:58;10.60;80.50
70244;DHT22;57634;51.136;17.024;2023-05-07T00:48:01;10.60;80.30
70244;DHT22;57634;51.136;17.024;2023-05-07T00:51:03;10.60;80.10
70244;DHT22;57634;51.136;17.024;2023-05-07T00:54:04;10.60;80.00
70244;DHT22;57634;51.136;17.024;2023-05-07T00:57:37;10.60;79.90
70244;DHT22;57634;51.136;17.024;2023-05-07T01:00:38;10.60;79.80
70244;DHT22;57634;51.136;17.024;2023-05-07T01:03:40;10.60;79.90
70244;DHT22;57634;51.136;17.024;2023-05-07T01:06:41;10.50;79.80
70244;DHT22;57634;51.136;17.024;2023-05-07T01:09:43;10.50;79.90
70244;DHT22;57634;51.136;17.024;2023-05-07T01:12:46;10.40;80.10
70244;DHT22;57634;51.136;17.024;2023-05-07T01:15:48;10.50;80.30
70244;DHT22;57634;51.136;17.024;2023-05-07T01:18:49;10.40;80.00
70244;DHT22;57634;51.136;17.024;2023-05-07T01:21:59;10.40;80.20
70244;DHT22;57634;51.136;17.024;2023-05-07T01:25:03;10.40;80.20
70244;DHT22;57634;51.136;17.024;2023-05-07T01:28:33;10.30;80.50
70244;DHT22;57634;51.136;17.024;2023-05-07T01:31:36;10.30;80.60
70244;DHT22;57634;51.136;17.024;2023-05-07T01:34:38;10.20;80.80
70244;DHT22;57634;51.136;17.024;2023-05-07T01:37:40;10.20;81.10
70244;DHT22;57634;51.136;17.024;2023-05-07T01:40:42;10.20;81.20
70244;DHT22;57634;51.136;17.024;2023-05-07T01:43:44;10.20;81.20
70244;DHT22;57634;51.136;17.024;2023-05-07T01:46:47;10.20;81.10
70244;DHT22;57634;51.136;17.024;2023-05-07T01:49:49;10.20;81.00
70244;DHT22;57634;51.136;17.024;2023-05-07T01:52:51;10.20;81.00
70244;DHT22;57634;51.136;17.024;2023-05-07T01:55:52;10.10;81.10
70244;DHT22;57634;51.136;17.024;2023-05-07T01:58:53;10.10;81.10
70244;DHT22;57634;51.136;17.024;2023-05-07T02:01:54;10.10;81.20
70244;DHT22;57634;51.136;17.024;2023-05-07T02:04:55;10.20;81.00
70244;DHT22;57634;51.136;17.024;2023-05-07T02:08:25;10.20;80.90
70244;DHT22;57634;51.136;17.024;2023-05-07T02:11:26;10.20;81.00
70244;DHT22;57634;51.136;17.024;2023-05-07T02:14:27;10.20;80.80
70244;DHT22;57634;51.136;17.024;2023-05-07T02:17:29;10.20;80.80
70244;DHT22;57634;51.136;17.024;2023-05-07T02:20:33;10.10;80.80
70244;DHT22;57634;51.136;17.024;2023-05-07T02:23:34;10.10;80.60
70244;DHT22;57634;51.136;17.024;2023-05-07T02:26:36;10.00;80.70
70244;DHT22;57634;51.136;17.024;2023-05-07T02:29:37;10.00;80.60
70244;DHT22;57634;51.136;17.024;2023-05-07T02:32:38;10.00;80.60
70244;DHT22;57634;51.136;17.024;2023-05-07T02:35:40;9.90;80.80
70244;DHT22;57634;51.136;17.024;2023-05-07T02:38:42;10.00;80.90
70244;DHT22;57634;51.136;17.024;2023-05-07T02:41:43;9.90;80.80
70244;DHT22;57634;51.136;17.024;2023-05-07T02:44:44;9.90;80.80
70244;DHT22;57634;51.136;17.024;2023-05-07T02:47:45;9.90;80.80
70244;DHT22;57634;51.136;17.024;2023-05-07T02:51:13;10.00;80.80
70244;DHT22;57634;51.136;17.024;2023-05-07T02:54:14;10.00;80.80
70244;DHT22;57634;51.136;17.024;2023-05-07T02:57:15;9.90;80.80
70244;DHT22;57634;51.136;17.024;2023-05-07T03:00:18;9.90;80.60
70244;DHT22;57634;51.136;17.024;2023-05-07T03:03:20;9.90;80.70
70244;DHT22;57634;51.136;17.024;2023-05-07T03:06:21;9.80;80.70
70244;DHT22;57634;51.136;17.024;2023-05-07T03:09:23;9.70;80.70
70244;DHT22;57634;51.136;17.024;2023-05-07T03:12:24;9.60;80.80
70244;DHT22;57634;51.136;17.024;2023-05-07T03:15:25;9.60;80.80
70244;DHT22;57634;51.136;17.024;2023-05-07T03:18:27;9.60;81.00
70244;DHT22;57634;51.136;17.024;2023-05-07T03:21:29;9.60;81.00
70244;DHT22;57634;51.136;17.024;2023-05-07T03:24:34;9.60;81.00
70244;DHT22;57634;51.136;17.024;2023-05-07T03:27:35;9.60;80.90
70244;DHT22;57634;51.136;17.024;2023-05-07T03:31:05;9.60;80.90
70244;DHT22;57634;51.136;17.024;2023-05-07T03:34:07;9.60;80.90
70244;DHT22;57634;51.136;17.024;2023-05-07T03:37:08;9.50;80.90
70244;DHT22;57634;51.136;17.024;2023-05-07T03:40:10;9.50;80.70
70244;DHT22;57634;51.136;17.024;2023-05-07T03:43:13;9.50;80.70
70244;DHT22;57634;51.136;17.024;2023-05-07T03:46:15;9.50;80.90
70244;DHT22;57634;51.136;17.024;2023-05-07T03:49:16;9.50;81.00
70244;DHT22;57634;51.136;17.024;2023-05-07T03:52:17;9.50;80.90
70244;DHT22;57634;51.136;17.024;2023-05-07T03:55:26;9.50;80.70
70244;DHT22;57634;51.136;17.024;2023-05-07T03:58:27;9.50;80.50
70244;DHT22;57634;51.136;17.024;2023-05-07T04:01:29;9.50;80.50
70244;DHT22;57634;51.136;17.024;2023-05-07T04:04:30;9.50;80.40
70244;DHT22;57634;51.136;17.024;2023-05-07T04:08:00;9.50;80.30
70244;DHT22;57634;51.136;17.024;2023-05-07T04:11:02;9.60;80.40
70244;DHT22;57634;51.136;17.024;2023-05-07T04:14:04;9.60;80.60
70244;DHT22;57634;51.136;17.024;2023-05-07T04:17:05;9.70;80.60
70244;DHT22;57634;51.136;17.024;2023-05-07T04:20:13;9.70;80.80
70244;DHT22;57634;51.136;17.024;2023-05-07T04:23:15;9.80;80.70
70244;DHT22;57634;51.136;17.024;2023-05-07T04:26:17;9.90;80.70
70244;DHT22;57634;51.136;17.024;2023-05-07T04:29:18;9.90;80.60
70244;DHT22;57634;51.136;17.024;2023-05-07T04:32:19;9.90;80.50
70244;DHT22;57634;51.136;17.024;2023-05-07T04:35:21;9.90;80.50
70244;DHT22;57634;51.136;17.024;2023-05-07T04:38:22;9.90;80.40
70244;DHT22;57634;51.136;17.024;2023-05-07T04:41:27;10.00;80.50
70244;DHT22;57634;51.136;17.024;2023-05-07T04:44:55;10.00;80.30
70244;DHT22;57634;51.136;17.024;2023-05-07T04:47:56;10.00;80.30
70244;DHT22;57634;51.136;17.024;2023-05-07T04:50:57;10.10;80.30
70244;DHT22;57634;51.136;17.024;2023-05-07T04:53:58;10.20;80.00
70244;DHT22;57634;51.136;17.024;2023-05-07T04:56:59;10.30;79.90
70244;DHT22;57634;51.136;17.024;2023-05-07T05:00:01;10.40;79.60
70244;DHT22;57634;51.136;17.024;2023-05-07T05:03:02;10.50;79.20
70244;DHT22;57634;51.136;17.024;2023-05-07T05:06:04;10.70;79.20
70244;DHT22;57634;51.136;17.024;2023-05-07T05:09:07;10.90;78.10
70244;DHT22;57634;51.136;17.024;2023-05-07T05:12:08;10.90;76.60
70244;DHT22;57634;51.136;17.024;2023-05-07T05:15:11;10.70;76.20
70244;DHT22;57634;51.136;17.024;2023-05-07T05:18:13;10.60;76.40
70244;DHT22;57634;51.136;17.024;2023-05-07T05:21:14;10.50;76.50
70244;DHT22;57634;51.136;17.024;2023-05-07T05:24:15;10.40;76.80
70244;DHT22;57634;51.136;17.024;2023-05-07T05:27:43;10.30;77.00
70244;DHT22;57634;51.136;17.024;2023-05-07T05:30:44;10.20;77.10
70244;DHT22;57634;51.136;17.024;2023-05-07T05:33:45;10.10;77.40
70244;DHT22;57634;51.136;17.024;2023-05-07T05:36:47;10.10;77.40
70244;DHT22;57634;51.136;17.024;2023-05-07T05:39:48;10.00;77.50
70244;DHT22;57634;51.136;17.024;2023-05-07T05:42:49;10.00;77.70
70244;DHT22;57634;51.136;17.024;2023-05-07T05:45:51;10.00;77.70
70244;DHT22;57634;51.136;17.024;2023-05-07T05:48:52;10.00;77.70
70244;DHT22;57634;51.136;17.024;2023-05-07T05:51:53;10.10;77.70
70244;DHT22;57634;51.136;17.024;2023-05-07T05:54:55;10.10;77.50
70244;DHT22;57634;51.136;17.024;2023-05-07T05:57:56;10.20;77.60
70244;DHT22;57634;51.136;17.024;2023-05-07T06:00:57;10.20;77.20
70244;DHT22;57634;51.136;17.024;2023-05-07T06:03:59;10.20;76.70
70244;DHT22;57634;51.136;17.024;2023-05-07T06:07:00;10.20;76.70
70244;DHT22;57634;51.136;17.024;2023-05-07T06:10:32;10.20;76.60
70244;DHT22;57634;51.136;17.024;2023-05-07T06:13:33;10.20;76.60
70244;DHT22;57634;51.136;17.024;2023-05-07T06:16:34;10.10;76.70
70244;DHT22;57634;51.136;17.024;2023-05-07T06:19:38;10.10;76.50
70244;DHT22;57634;51.136;17.024;2023-05-07T06:22:39;10.10;76.40
70244;DHT22;57634;51.136;17.024;2023-05-07T06:25:41;10.00;76.40
70244;DHT22;57634;51.136;17.024;2023-05-07T06:28:45;10.00;76.60
70244;DHT22;57634;51.136;17.024;2023-05-07T06:31:46;10.10;76.70
70244;DHT22;57634;51.136;17.024;2023-05-07T06:34:48;10.10;76.30
70244;DHT22;57634;51.136;17.024;2023-05-07T06:37:49;10.20;76.10
70244;DHT22;57634;51.136;17.024;2023-05-07T06:40:50;10.30;75.30
70244;DHT22;57634;51.136;17.024;2023-05-07T06:43:52;10.30;75.00
70244;DHT22;57634;51.136;17.024;2023-05-07T06:46:53;10.40;74.90
70244;DHT22;57634;51.136;17.024;2023-05-07T06:49:54;10.40;75.00
70244;DHT22;57634;51.136;17.024;2023-05-07T06:53:22;10.40;75.00
70244;DHT22;57634;51.136;17.024;2023-05-07T06:56:23;10.50;74.40
70244;DHT22;57634;51.136;17.024;2023-05-07T06:59:25;10.40;74.10
70244;DHT22;57634;51.136;17.024;2023-05-07T07:02:26;10.40;73.60
70244;DHT22;57634;51.136;17.024;2023-05-07T07:05:27;10.30;73.30
70244;DHT22;57634;51.136;17.024;2023-05-07T07:08:29;10.30;73.30
70244;DHT22;57634;51.136;17.024;2023-05-07T07:11:31;10.20;73.40
70244;DHT22;57634;51.136;17.024;2023-05-07T07:14:33;10.20;73.30
70244;DHT22;57634;51.136;17.024;2023-05-07T07:17:34;10.20;73.10
70244;DHT22;57634;51.136;17.024;2023-05-07T07:20:36;10.20;72.90
70244;DHT22;57634;51.136;17.024;2023-05-07T07:23:37;10.20;72.60
70244;DHT22;57634;51.136;17.024;2023-05-07T07:26:41;10.30;72.50
70244;DHT22;57634;51.136;17.024;2023-05-07T07:29:43;10.40;72.40
70244;DHT22;57634;51.136;17.024;2023-05-07T07:33:13;10.40;72.20
70244;DHT22;57634;51.136;17.024;2023-05-07T07:36:15;10.50;72.20
70244;DHT22;57634;51.136;17.024;2023-05-07T07:39:17;10.60;72.40
70244;DHT22;57634;51.136;17.024;2023-05-07T07:42:18;10.70;72.10
70244;DHT22;57634;51.136;17.024;2023-05-07T07:45:20;10.90;71.70
70244;DHT22;57634;51.136;17.024;2023-05-07T07:48:22;11.00;71.60
70244;DHT22;57634;51.136;17.024;2023-05-07T07:51:23;11.10;71.00
70244;DHT22;57634;51.136;17.024;2023-05-07T07:54:24;11.20;70.50
70244;DHT22;57634;51.136;17.024;2023-05-07T07:57:25;11.10;70.30
70244;DHT22;57634;51.136;17.024;2023-05-07T08:00:26;11.00;70.20
70244;DHT22;57634;51.136;17.024;2023-05-07T08:03:27;10.90;70.60
70244;DHT22;57634;51.136;17.024;2023-05-07T08:06:32;10.70;71.20
70244;DHT22;57634;51.136;17.024;2023-05-07T08:09:33;10.60;71.20
70244;DHT22;57634;51.136;17.024;2023-05-07T08:12:34;10.50;71.20
70244;DHT22;57634;51.136;17.024;2023-05-07T08:16:02;10.40;71.40
70244;DHT22;57634;51.136;17.024;2023-05-07T08:19:04;10.30;71.70
70244;DHT22;57634;51.136;17.024;2023-05-07T08:25:00;10.30;72.10
70244;DHT22;57634;51.136;17.024;2023-05-07T08:28:04;10.30;72.30
70244;DHT22;57634;51.136;17.024;2023-05-07T08:31:06;10.30;72.30
70244;DHT22;57634;51.136;17.024;2023-05-07T08:34:07;10.30;72.20
70244;DHT22;57634;51.136;17.024;2023-05-07T08:37:09;10.30;72.20
70244;DHT22;57634;51.136;17.024;2023-05-07T08:40:10;10.30;72.00
70244;DHT22;57634;51.136;17.024;2023-05-07T08:43:15;10.20;71.90
70244;DHT22;57634;51.136;17.024;2023-05-07T08:46:20;10.20;72.20
70244;DHT22;57634;51.136;17.024;2023-05-07T08:49:21;10.20;72.50
70244;DHT22;57634;51.136;17.024;2023-05-07T08:52:22;10.20;72.60
70244;DHT22;57634;51.136;17.024;2023-05-07T08:55:24;10.10;72.60
70244;DHT22;57634;51.136;17.024;2023-05-07T08:58:54;10.10;72.90
70244;DHT22;57634;51.136;17.024;2023-05-07T09:01:59;10.00;72.90
70244;DHT22;57634;51.136;17.024;2023-05-07T09:05:01;9.90;73.10
70244;DHT22;57634;51.136;17.024;2023-05-07T09:08:06;9.90;73.40
70244;DHT22;57634;51.136;17.024;2023-05-07T09:11:07;9.90;73.30
70244;DHT22;57634;51.136;17.024;2023-05-07T09:14:08;9.90;73.20
70244;DHT22;57634;51.136;17.024;2023-05-07T09:17:10;10.00;73.10
70244;DHT22;57634;51.136;17.024;2023-05-07T09:20:11;10.10;72.80
70244;DHT22;57634;51.136;17.024;2023-05-07T09:23:12;10.10;72.70
70244;DHT22;57634;51.136;17.024;2023-05-07T09:26:14;10.10;72.50
70244;DHT22;57634;51.136;17.024;2023-05-07T09:29:18;10.20;72.30
70244;DHT22;57634;51.136;17.024;2023-05-07T09:32:20;10.30;71.80
70244;DHT22;57634;51.136;17.024;2023-05-07T09:35:52;10.30;71.80
70244;DHT22;57634;51.136;17.024;2023-05-07T09:38:54;10.30;72.30
70244;DHT22;57634;51.136;17.024;2023-05-07T09:45:25;10.60;72.00
70244;DHT22;57634;51.136;17.024;2023-05-07T09:48:27;10.80;72.20
70244;DHT22;57634;51.136;17.024;2023-05-07T09:51:39;11.00;71.50
70244;DHT22;57634;51.136;17.024;2023-05-07T09:55:09;11.20;70.40
70244;DHT22;57634;51.136;17.024;2023-05-07T09:58:14;11.20;69.70
70244;DHT22;57634;51.136;17.024;2023-05-07T10:01:18;11.30;69.90
70244;DHT22;57634;51.136;17.024;2023-05-07T10:04:23;11.40;69.60
70244;DHT22;57634;51.136;17.024;2023-05-07T10:07:24;11.70;69.20
70244;DHT22;57634;51.136;17.024;2023-05-07T10:10:27;11.90;68.60
70244;DHT22;57634;51.136;17.024;2023-05-07T10:13:29;12.20;67.30
70244;DHT22;57634;51.136;17.024;2023-05-07T10:16:32;12.50;66.70
70244;DHT22;57634;51.136;17.024;2023-05-07T10:20:08;12.70;65.70
70244;DHT22;57634;51.136;17.024;2023-05-07T10:23:13;12.60;63.60
70244;DHT22;57634;51.136;17.024;2023-05-07T10:26:18;12.40;63.60
70244;DHT22;57634;51.136;17.024;2023-05-07T10:29:33;12.20;63.90
70244;DHT22;57634;51.136;17.024;2023-05-07T10:32:39;12.20;64.60
70244;DHT22;57634;51.136;17.024;2023-05-07T10:35:43;12.30;64.50
70244;DHT22;57634;51.136;17.024;2023-05-07T10:38:50;12.30;64.00
70244;DHT22;57634;51.136;17.024;2023-05-07T10:42:34;12.30;63.70
70244;DHT22;57634;51.136;17.024;2023-05-07T10:45:36;12.30;63.90
70244;DHT22;57634;51.136;17.024;2023-05-07T10:58:26;12.30;63.40
70244;DHT22;57634;51.136;17.024;2023-05-07T11:01:59;12.30;63.50
70244;DHT22;57634;51.136;17.024;2023-05-07T11:05:22;12.20;63.80
70244;DHT22;57634;51.136;17.024;2023-05-07T11:08:24;12.20;63.70
70244;DHT22;57634;51.136;17.024;2023-05-07T11:11:50;12.20;63.70
70244;DHT22;57634;51.136;17.024;2023-05-07T11:14:47;12.20;64.00
70244;DHT22;57634;51.136;17.024;2023-05-07T11:18:15;12.10;63.90
70244;DHT22;57634;51.136;17.024;2023-05-07T11:24:40;12.10;63.80
70244;DHT22;57634;51.136;17.024;2023-05-07T11:27:43;12.10;64.10
70244;DHT22;57634;51.136;17.024;2023-05-07T11:30:45;12.10;63.90
70244;DHT22;57634;51.136;17.024;2023-05-07T11:33:50;12.10;64.10
70244;DHT22;57634;51.136;17.024;2023-05-07T11:36:52;12.00;64.20
70244;DHT22;57634;51.136;17.024;2023-05-07T11:40:23;12.00;64.20
70244;DHT22;57634;51.136;17.024;2023-05-07T11:43:24;12.10;64.20
70244;DHT22;57634;51.136;17.024;2023-05-07T11:46:27;12.20;63.50
70244;DHT22;57634;51.136;17.024;2023-05-07T11:49:28;12.20;62.50
70244;DHT22;57634;51.136;17.024;2023-05-07T11:52:30;12.10;62.70
70244;DHT22;57634;51.136;17.024;2023-05-07T11:55:31;12.00;63.00
70244;DHT22;57634;51.136;17.024;2023-05-07T11:58:32;12.00;63.20
70244;DHT22;57634;51.136;17.024;2023-05-07T12:04:56;11.90;62.90
70244;DHT22;57634;51.136;17.024;2023-05-07T12:08:26;11.80;62.90
70244;DHT22;57634;51.136;17.024;2023-05-07T12:11:27;11.90;63.50
70244;DHT22;57634;51.136;17.024;2023-05-07T12:14:28;11.90;62.90
70244;DHT22;57634;51.136;17.024;2023-05-07T12:17:30;11.80;63.00
70244;DHT22;57634;51.136;17.024;2023-05-07T12:20:31;11.80;63.50
70244;DHT22;57634;51.136;17.024;2023-05-07T12:23:36;11.70;63.80
70244;DHT22;57634;51.136;17.024;2023-05-07T12:26:41;11.70;63.90
70244;DHT22;57634;51.136;17.024;2023-05-07T12:29:51;11.80;63.90
70244;DHT22;57634;51.136;17.024;2023-05-07T12:32:53;11.90;63.60
70244;DHT22;57634;51.136;17.024;2023-05-07T12:36:38;11.80;63.20
70244;DHT22;57634;51.136;17.024;2023-05-07T12:39:48;11.90;63.40
70244;DHT22;57634;51.136;17.024;2023-05-07T12:42:53;11.90;63.50
70244;DHT22;57634;51.136;17.024;2023-05-07T12:46:01;11.90;63.60
70244;DHT22;57634;51.136;17.024;2023-05-07T12:49:06;11.90;63.20
70244;DHT22;57634;51.136;17.024;2023-05-07T12:52:07;11.90;63.00
70244;DHT22;57634;51.136;17.024;2023-05-07T12:55:09;11.80;62.80
70244;DHT22;57634;51.136;17.024;2023-05-07T12:58:37;11.80;62.80
70244;DHT22;57634;51.136;17.024;2023-05-07T13:01:38;11.80;63.20
70244;DHT22;57634;51.136;17.024;2023-05-07T13:04:39;11.70;63.30
70244;DHT22;57634;51.136;17.024;2023-05-07T13:07:41;11.80;63.70
70244;DHT22;57634;51.136;17.024;2023-05-07T13:10:47;11.70;63.40
70244;DHT22;57634;51.136;17.024;2023-05-07T13:13:48;11.80;63.60
70244;DHT22;57634;51.136;17.024;2023-05-07T13:16:49;11.80;63.50
70244;DHT22;57634;51.136;17.024;2023-05-07T13:19:51;11.80;63.10
70244;DHT22;57634;51.136;17.024;2023-05-07T13:22:52;11.70;63.10
70244;DHT22;57634;51.136;17.024;2023-05-07T13:25:53;11.70;63.40
70244;DHT22;57634;51.136;17.024;2023-05-07T13:28:57;11.70;63.70
70244;DHT22;57634;51.136;17.024;2023-05-07T13:31:59;11.60;63.80
70244;DHT22;57634;51.136;17.024;2023-05-07T13:35:01;11.50;63.90
70244;DHT22;57634;51.136;17.024;2023-05-07T13:38:28;11.50;64.00
70244;DHT22;57634;51.136;17.024;2023-05-07T13:41:30;11.50;63.90
70244;DHT22;57634;51.136;17.024;2023-05-07T13:44:31;11.60;63.50
70244;DHT22;57634;51.136;17.024;2023-05-07T13:47:32;11.60;63.50
70244;DHT22;57634;51.136;17.024;2023-05-07T13:50:33;11.70;63.60
70244;DHT22;57634;51.136;17.024;2023-05-07T13:53:35;11.70;63.50
70244;DHT22;57634;51.136;17.024;2023-05-07T13:56:36;11.70;63.20
70244;DHT22;57634;51.136;17.024;2023-05-07T13:59:38;11.70;63.30
70244;DHT22;57634;51.136;17.024;2023-05-07T14:02:40;11.70;63.40
70244;DHT22;57634;51.136;17.024;2023-05-07T14:05:41;11.70;63.10
70244;DHT22;57634;51.136;17.024;2023-05-07T14:08:43;11.60;62.70
70244;DHT22;57634;51.136;17.024;2023-05-07T14:11:44;11.60;62.70
70244;DHT22;57634;51.136;17.024;2023-05-07T14:14:48;11.60;62.70
70244;DHT22;57634;51.136;17.024;2023-05-07T14:17:50;11.50;62.80
70244;DHT22;57634;51.136;17.024;2023-05-07T14:21:17;11.30;63.20
70244;DHT22;57634;51.136;17.024;2023-05-07T14:24:18;11.30;63.80
70244;DHT22;57634;51.136;17.024;2023-05-07T14:27:20;11.30;64.00
70244;DHT22;57634;51.136;17.024;2023-05-07T14:30:21;11.30;63.90
70244;DHT22;57634;51.136;17.024;2023-05-07T14:33:25;11.30;64.00
70244;DHT22;57634;51.136;17.024;2023-05-07T14:36:27;11.30;63.90
70244;DHT22;57634;51.136;17.024;2023-05-07T14:39:28;11.30;64.00
70244;DHT22;57634;51.136;17.024;2023-05-07T14:42:30;11.40;63.80
70244;DHT22;57634;51.136;17.024;2023-05-07T14:45:31;11.40;63.60
70244;DHT22;57634;51.136;17.024;2023-05-07T14:48:32;11.50;63.60
70244;DHT22;57634;51.136;17.024;2023-05-07T14:51:34;11.50;63.30
70244;DHT22;57634;51.136;17.024;2023-05-07T14:54:38;11.50;63.00
70244;DHT22;57634;51.136;17.024;2023-05-07T14:57:39;11.50;63.10
70244;DHT22;57634;51.136;17.024;2023-05-07T15:01:09;11.60;63.20
70244;DHT22;57634;51.136;17.024;2023-05-07T15:04:10;11.60;63.00
70244;DHT22;57634;51.136;17.024;2023-05-07T15:07:12;11.70;62.90
70244;DHT22;57634;51.136;17.024;2023-05-07T15:10:17;11.70;62.70
70244;DHT22;57634;51.136;17.024;2023-05-07T15:13:18;11.70;62.70
70244;DHT22;57634;51.136;17.024;2023-05-07T15:16:20;11.70;62.50
70244;DHT22;57634;51.136;17.024;2023-05-07T15:19:21;11.70;62.50
70244;DHT22;57634;51.136;17.024;2023-05-07T15:22:30;11.70;62.70
70244;DHT22;57634;51.136;17.024;2023-05-07T15:25:31;11.60;62.70
70244;DHT22;57634;51.136;17.024;2023-05-07T15:28:34;11.60;62.70
70244;DHT22;57634;51.136;17.024;2023-05-07T15:31:36;11.70;63.00
70244;DHT22;57634;51.136;17.024;2023-05-07T15:35:06;11.70;62.70
70244;DHT22;57634;51.136;17.024;2023-05-07T15:38:08;11.70;62.70
70244;DHT22;57634;51.136;17.024;2023-05-07T15:41:09;11.60;62.70
70244;DHT22;57634;51.136;17.024;2023-05-07T15:44:11;11.60;63.10
70244;DHT22;57634;51.136;17.024;2023-05-07T15:47:12;11.60;63.10
70244;DHT22;57634;51.136;17.024;2023-05-07T15:50:15;11.50;63.30
70244;DHT22;57634;51.136;17.024;2023-05-07T15:53:18;11.40;63.10
70244;DHT22;57634;51.136;17.024;2023-05-07T15:56:19;11.30;63.50
70244;DHT22;57634;51.136;17.024;2023-05-07T15:59:21;11.30;63.80
70244;DHT22;57634;51.136;17.024;2023-05-07T16:02:22;11.30;64.00
70244;DHT22;57634;51.136;17.024;2023-05-07T16:05:24;11.20;64.10
70244;DHT22;57634;51.136;17.024;2023-05-07T16:08:26;11.20;64.50
70244;DHT22;57634;51.136;17.024;2023-05-07T16:11:27;11.20;64.60
70244;DHT22;57634;51.136;17.024;2023-05-07T16:14:57;11.30;64.80
70244;DHT22;57634;51.136;17.024;2023-05-07T16:17:58;11.30;65.00
70244;DHT22;57634;51.136;17.024;2023-05-07T16:20:59;11.30;64.80
70244;DHT22;57634;51.136;17.024;2023-05-07T16:24:01;11.40;64.70
70244;DHT22;57634;51.136;17.024;2023-05-07T16:27:02;11.40;64.40
70244;DHT22;57634;51.136;17.024;2023-05-07T16:30:04;11.40;64.20
70244;DHT22;57634;51.136;17.024;2023-05-07T16:33:06;11.30;64.30
70244;DHT22;57634;51.136;17.024;2023-05-07T16:36:10;11.20;64.30
70244;DHT22;57634;51.136;17.024;2023-05-07T16:39:14;11.20;64.30
70244;DHT22;57634;51.136;17.024;2023-05-07T16:42:19;11.20;64.40
70244;DHT22;57634;51.136;17.024;2023-05-07T16:45:20;11.20;64.50
70244;DHT22;57634;51.136;17.024;2023-05-07T16:48:22;11.10;64.40
70244;DHT22;57634;51.136;17.024;2023-05-07T16:51:51;11.20;64.70
70244;DHT22;57634;51.136;17.024;2023-05-07T16:54:53;11.20;64.80
70244;DHT22;57634;51.136;17.024;2023-05-07T16:58:00;11.20;64.80
70244;DHT22;57634;51.136;17.024;2023-05-07T17:01:01;11.10;64.80
70244;DHT22;57634;51.136;17.024;2023-05-07T17:04:03;11.10;64.90
70244;DHT22;57634;51.136;17.024;2023-05-07T17:07:05;11.10;64.90
70244;DHT22;57634;51.136;17.024;2023-05-07T17:10:07;11.10;65.00
70244;DHT22;57634;51.136;17.024;2023-05-07T17:13:12;11.10;65.10
70244;DHT22;57634;51.136;17.024;2023-05-07T17:16:13;11.10;65.20
70244;DHT22;57634;51.136;17.024;2023-05-07T17:19:14;11.10;65.10
70244;DHT22;57634;51.136;17.024;2023-05-07T17:22:15;11.10;64.80
70244;DHT22;57634;51.136;17.024;2023-05-07T17:25:17;11.00;65.00
70244;DHT22;57634;51.136;17.024;2023-05-07T17:28:46;11.00;65.10
70244;DHT22;57634;51.136;17.024;2023-05-07T17:31:47;11.00;65.00
70244;DHT22;57634;51.136;17.024;2023-05-07T17:34:48;11.00;64.90
70244;DHT22;57634;51.136;17.024;2023-05-07T17:37:50;11.00;64.80
70244;DHT22;57634;51.136;17.024;2023-05-07T17:40:54;11.00;64.90
70244;DHT22;57634;51.136;17.024;2023-05-07T17:43:56;11.00;64.90
70244;DHT22;57634;51.136;17.024;2023-05-07T17:46:57;11.00;64.80
70244;DHT22;57634;51.136;17.024;2023-05-07T17:49:58;10.90;64.90
70244;DHT22;57634;51.136;17.024;2023-05-07T17:52:59;10.90;65.00
70244;DHT22;57634;51.136;17.024;2023-05-07T17:56:01;10.90;65.10
70244;DHT22;57634;51.136;17.024;2023-05-07T17:59:02;10.90;65.20
70244;DHT22;57634;51.136;17.024;2023-05-07T18:02:04;10.80;65.30
70244;DHT22;57634;51.136;17.024;2023-05-07T18:05:06;10.80;65.50
70244;DHT22;57634;51.136;17.024;2023-05-07T18:08:09;10.80;65.60
70244;DHT22;57634;51.136;17.024;2023-05-07T18:11:36;10.80;65.80
70244;DHT22;57634;51.136;17.024;2023-05-07T18:14:37;10.80;66.10
70244;DHT22;57634;51.136;17.024;2023-05-07T18:17:39;10.70;66.30
70244;DHT22;57634;51.136;17.024;2023-05-07T18:20:40;10.70;66.50
70244;DHT22;57634;51.136;17.024;2023-05-07T18:23:41;10.70;66.70
70244;DHT22;57634;51.136;17.024;2023-05-07T18:26:42;10.70;66.90
70244;DHT22;57634;51.136;17.024;2023-05-07T18:29:47;10.60;67.00
70244;DHT22;57634;51.136;17.024;2023-05-07T18:32:51;10.60;66.90
70244;DHT22;57634;51.136;17.024;2023-05-07T18:35:53;10.60;66.90
70244;DHT22;57634;51.136;17.024;2023-05-07T18:38:54;10.60;66.90
70244;DHT22;57634;51.136;17.024;2023-05-07T18:41:56;10.60;67.00
70244;DHT22;57634;51.136;17.024;2023-05-07T18:44:58;10.60;66.90
70244;DHT22;57634;51.136;17.024;2023-05-07T18:48:00;10.60;66.90
70244;DHT22;57634;51.136;17.024;2023-05-07T18:51:27;10.60;66.90
70244;DHT22;57634;51.136;17.024;2023-05-07T18:54:28;10.60;67.00
70244;DHT22;57634;51.136;17.024;2023-05-07T18:57:30;10.50;67.10
70244;DHT22;57634;51.136;17.024;2023-05-07T19:00:31;10.50;67.20
70244;DHT22;57634;51.136;17.024;2023-05-07T19:03:35;10.50;67.20
70244;DHT22;57634;51.136;17.024;2023-05-07T19:06:36;10.40;67.10
70244;DHT22;57634;51.136;17.024;2023-05-07T19:09:37;10.40;67.10
70244;DHT22;57634;51.136;17.024;2023-05-07T19:12:39;10.40;67.40
70244;DHT22;57634;51.136;17.024;2023-05-07T19:15:41;10.40;67.40
70244;DHT22;57634;51.136;17.024;2023-05-07T19:18:42;10.40;67.40
70244;DHT22;57634;51.136;17.024;2023-05-07T19:21:47;10.30;67.30
70244;DHT22;57634;51.136;17.024;2023-05-07T19:24:48;10.40;67.40
70244;DHT22;57634;51.136;17.024;2023-05-07T19:27:50;10.30;67.30
70244;DHT22;57634;51.136;17.024;2023-05-07T19:31:23;10.30;67.30
70244;DHT22;57634;51.136;17.024;2023-05-07T19:34:27;10.40;67.50